Mooringsport, Louisiana
Current Conditions -  °F | °C
As of 3:53 AM on Saturday 22 Nov 2014 (Local Time) from KDTN Reporting Station
Overcast Overcast  
Wind Chill: 57°   Ceiling: 3700
Heat Index: 57°   Visibility: 10mi
Dew Point: 51°   Wind: 5mph
Humidity: 81%   Direction: 110°ESE
Pressure: 30.17"   Gusts: NA
Location:  32.69°N, 93.96°W
Report Text: KDTN 220953Z AUTO 11004KT 10SM OVC037 14/11 A3017 RMK AO2 SLP216 T01390106
Loading
Personal Weather Stations






























Interactive Weather Map New forecast layout! Learn more

10-Day Weather Forecast

Advertisements
Track Severe Weather on mobile